sensor_id;sensor_type;location;lat;lon;timestamp;pressure;altitude;pressure_sealevel;temperature;humidity
10348;BME280;5220;43.192;23.284;2024-01-06T00:02:01;96556.94;;;13.34;42.39
10348;BME280;5220;43.192;23.284;2024-01-06T00:04:28;96548.38;;;13.42;42.67
10348;BME280;5220;43.192;23.284;2024-01-06T00:06:56;96537.44;;;13.29;42.54
10348;BME280;5220;43.192;23.284;2024-01-06T00:09:23;96550.88;;;13.43;42.42
10348;BME280;5220;43.192;23.284;2024-01-06T00:11:49;96575.06;;;13.26;42.88
10348;BME280;5220;43.192;23.284;2024-01-06T00:14:16;96574.66;;;13.31;43.07
10348;BME280;5220;43.192;23.284;2024-01-06T00:16:43;96568.34;;;13.33;42.22
10348;BME280;5220;43.192;23.284;2024-01-06T00:19:10;96577.28;;;13.50;42.82
10348;BME280;5220;43.192;23.284;2024-01-06T00:21:37;96583.59;;;13.57;42.69
10348;BME280;5220;43.192;23.284;2024-01-06T00:24:06;96584.16;;;13.51;42.49
10348;BME280;5220;43.192;23.284;2024-01-06T00:26:33;96582.34;;;13.61;42.15
10348;BME280;5220;43.192;23.284;2024-01-06T00:28:59;96571.09;;;13.51;42.25
10348;BME280;5220;43.192;23.284;2024-01-06T00:31:26;96592.81;;;13.52;41.88
10348;BME280;5220;43.192;23.284;2024-01-06T00:33:53;96587.47;;;13.53;42.36
10348;BME280;5220;43.192;23.284;2024-01-06T00:36:19;96597.75;;;13.45;42.01
10348;BME280;5220;43.192;23.284;2024-01-06T00:38:46;96600.25;;;13.46;41.71
10348;BME280;5220;43.192;23.284;2024-01-06T00:41:14;96597.34;;;13.59;42.89
10348;BME280;5220;43.192;23.284;2024-01-06T00:43:42;96604.09;;;13.33;43.74
10348;BME280;5220;43.192;23.284;2024-01-06T00:46:08;96595.19;;;13.35;42.70
10348;BME280;5220;43.192;23.284;2024-01-06T00:48:35;96601.47;;;13.52;41.99
10348;BME280;5220;43.192;23.284;2024-01-06T00:51:02;96596.41;;;13.60;42.30
10348;BME280;5220;43.192;23.284;2024-01-06T00:53:29;96586.63;;;13.53;42.93
10348;BME280;5220;43.192;23.284;2024-01-06T00:55:55;96570.56;;;13.38;43.01
10348;BME280;5220;43.192;23.284;2024-01-06T00:58:23;96599.84;;;13.13;44.36
10348;BME280;5220;43.192;23.284;2024-01-06T01:00:50;96583.91;;;13.35;44.37
10348;BME280;5220;43.192;23.284;2024-01-06T01:03:17;96568.63;;;13.50;44.47
10348;BME280;5220;43.192;23.284;2024-01-06T01:05:43;96568.06;;;13.56;45.26
10348;BME280;5220;43.192;23.284;2024-01-06T01:08:10;96568.22;;;13.54;45.83
10348;BME280;5220;43.192;23.284;2024-01-06T01:10:37;96566.28;;;13.56;45.59
10348;BME280;5220;43.192;23.284;2024-01-06T01:13:03;96563.94;;;13.53;47.14
10348;BME280;5220;43.192;23.284;2024-01-06T01:15:32;96578.66;;;13.44;47.90
10348;BME280;5220;43.192;23.284;2024-01-06T01:17:58;96574.94;;;13.47;48.99
10348;BME280;5220;43.192;23.284;2024-01-06T01:20:25;96570.13;;;13.42;48.27
10348;BME280;5220;43.192;23.284;2024-01-06T01:22:52;96570.56;;;13.19;49.33
10348;BME280;5220;43.192;23.284;2024-01-06T01:25:18;96577.16;;;13.23;49.58
10348;BME280;5220;43.192;23.284;2024-01-06T01:27:45;96565.59;;;12.47;45.65
10348;BME280;5220;43.192;23.284;2024-01-06T01:30:12;96552.31;;;12.60;45.53
10348;BME280;5220;43.192;23.284;2024-01-06T01:32:40;96569.94;;;12.86;45.08
10348;BME280;5220;43.192;23.284;2024-01-06T01:35:08;96566.91;;;12.81;46.04
10348;BME280;5220;43.192;23.284;2024-01-06T01:37:34;96579.00;;;12.82;45.58
10348;BME280;5220;43.192;23.284;2024-01-06T01:40:01;96562.53;;;12.82;45.79
10348;BME280;5220;43.192;23.284;2024-01-06T01:42:28;96558.00;;;12.93;45.49
10348;BME280;5220;43.192;23.284;2024-01-06T01:44:54;96555.41;;;13.03;45.71
10348;BME280;5220;43.192;23.284;2024-01-06T01:47:21;96548.78;;;12.99;46.59
10348;BME280;5220;43.192;23.284;2024-01-06T01:49:49;96558.41;;;12.99;45.81
10348;BME280;5220;43.192;23.284;2024-01-06T01:52:16;96556.22;;;13.04;47.08
10348;BME280;5220;43.192;23.284;2024-01-06T01:54:45;96559.00;;;13.12;48.67
10348;BME280;5220;43.192;23.284;2024-01-06T01:57:12;96555.78;;;12.99;49.96
10348;BME280;5220;43.192;23.284;2024-01-06T01:59:40;96551.81;;;13.04;49.33
10348;BME280;5220;43.192;23.284;2024-01-06T02:02:07;96547.69;;;13.02;48.56
10348;BME280;5220;43.192;23.284;2024-01-06T02:04:34;96545.34;;;12.99;50.49
10348;BME280;5220;43.192;23.284;2024-01-06T02:07:02;96554.00;;;12.99;51.16
10348;BME280;5220;43.192;23.284;2024-01-06T02:09:30;96553.22;;;12.49;48.66
10348;BME280;5220;43.192;23.284;2024-01-06T02:11:57;96548.06;;;12.19;45.39
10348;BME280;5220;43.192;23.284;2024-01-06T02:14:24;96545.78;;;12.35;45.25
10348;BME280;5220;43.192;23.284;2024-01-06T02:16:50;96555.31;;;12.55;48.19
10348;BME280;5220;43.192;23.284;2024-01-06T02:19:17;96550.94;;;12.65;53.33
10348;BME280;5220;43.192;23.284;2024-01-06T02:21:48;96549.44;;;12.72;53.97
10348;BME280;5220;43.192;23.284;2024-01-06T02:24:15;96553.28;;;12.68;54.82
10348;BME280;5220;43.192;23.284;2024-01-06T02:26:42;96551.78;;;12.66;54.89
10348;BME280;5220;43.192;23.284;2024-01-06T02:29:08;96537.53;;;12.30;54.37
10348;BME280;5220;43.192;23.284;2024-01-06T02:31:35;96530.03;;;12.06;56.20
10348;BME280;5220;43.192;23.284;2024-01-06T02:34:02;96527.50;;;12.25;55.11
10348;BME280;5220;43.192;23.284;2024-01-06T02:36:28;96523.50;;;12.21;52.34
10348;BME280;5220;43.192;23.284;2024-01-06T02:38:56;96522.00;;;12.19;51.82
10348;BME280;5220;43.192;23.284;2024-01-06T02:41:23;96523.78;;;12.28;50.13
10348;BME280;5220;43.192;23.284;2024-01-06T02:43:50;96536.72;;;12.29;52.48
10348;BME280;5220;43.192;23.284;2024-01-06T02:46:17;96531.34;;;12.31;54.76
10348;BME280;5220;43.192;23.284;2024-01-06T02:48:44;96516.97;;;11.97;54.70
10348;BME280;5220;43.192;23.284;2024-01-06T02:51:11;96521.31;;;12.17;55.80
10348;BME280;5220;43.192;23.284;2024-01-06T02:53:38;96517.84;;;11.76;53.38
10348;BME280;5220;43.192;23.284;2024-01-06T02:56:09;96532.03;;;11.93;50.84
10348;BME280;5220;43.192;23.284;2024-01-06T02:58:36;96529.97;;;11.66;53.22
10348;BME280;5220;43.192;23.284;2024-01-06T03:01:03;96517.25;;;12.03;54.23
10348;BME280;5220;43.192;23.284;2024-01-06T03:03:29;96510.47;;;12.21;55.09
10348;BME280;5220;43.192;23.284;2024-01-06T03:05:57;96515.50;;;12.04;54.47
10348;BME280;5220;43.192;23.284;2024-01-06T03:08:24;96504.78;;;12.07;54.92
10348;BME280;5220;43.192;23.284;2024-01-06T03:10:50;96499.09;;;12.22;54.93
10348;BME280;5220;43.192;23.284;2024-01-06T03:13:18;96494.84;;;12.31;55.62
10348;BME280;5220;43.192;23.284;2024-01-06T03:15:45;96490.31;;;11.63;61.50
10348;BME280;5220;43.192;23.284;2024-01-06T03:18:12;96487.06;;;12.01;59.59
10348;BME280;5220;43.192;23.284;2024-01-06T03:20:38;96492.97;;;12.03;59.52
10348;BME280;5220;43.192;23.284;2024-01-06T03:23:05;96488.63;;;12.13;58.40
10348;BME280;5220;43.192;23.284;2024-01-06T03:25:32;96487.88;;;11.92;61.40
10348;BME280;5220;43.192;23.284;2024-01-06T03:27:58;96488.31;;;12.06;61.55
10348;BME280;5220;43.192;23.284;2024-01-06T03:30:26;96481.84;;;12.01;65.27
10348;BME280;5220;43.192;23.284;2024-01-06T03:32:53;96473.91;;;12.12;69.32
10348;BME280;5220;43.192;23.284;2024-01-06T03:35:20;96475.84;;;12.10;67.26
10348;BME280;5220;43.192;23.284;2024-01-06T03:37:47;96463.22;;;12.15;68.75
10348;BME280;5220;43.192;23.284;2024-01-06T03:40:13;96459.34;;;12.00;64.00
10348;BME280;5220;43.192;23.284;2024-01-06T03:42:40;96472.16;;;11.31;64.88
10348;BME280;5220;43.192;23.284;2024-01-06T03:45:07;96463.88;;;11.16;61.18
10348;BME280;5220;43.192;23.284;2024-01-06T03:47:35;96459.22;;;11.20;60.10
10348;BME280;5220;43.192;23.284;2024-01-06T03:50:02;96460.97;;;11.40;59.48
10348;BME280;5220;43.192;23.284;2024-01-06T03:52:29;96470.53;;;11.30;60.82
10348;BME280;5220;43.192;23.284;2024-01-06T03:54:56;96468.38;;;11.65;56.17
10348;BME280;5220;43.192;23.284;2024-01-06T03:57:21;96463.44;;;11.93;55.57
10348;BME280;5220;43.192;23.284;2024-01-06T03:59:48;96460.47;;;12.07;55.26
10348;BME280;5220;43.192;23.284;2024-01-06T04:02:15;96460.91;;;12.21;53.36
10348;BME280;5220;43.192;23.284;2024-01-06T04:04:43;96452.84;;;12.34;54.67
10348;BME280;5220;43.192;23.284;2024-01-06T04:07:09;96438.13;;;12.33;55.50
10348;BME280;5220;43.192;23.284;2024-01-06T04:09:36;96442.81;;;12.20;56.27
10348;BME280;5220;43.192;23.284;2024-01-06T04:12:03;96435.00;;;12.29;54.90
10348;BME280;5220;43.192;23.284;2024-01-06T04:14:30;96441.59;;;12.43;56.08
10348;BME280;5220;43.192;23.284;2024-01-06T04:16:56;96429.94;;;12.47;53.11
10348;BME280;5220;43.192;23.284;2024-01-06T04:19:23;96425.97;;;12.62;54.82
10348;BME280;5220;43.192;23.284;2024-01-06T04:21:51;96416.06;;;12.66;54.00
10348;BME280;5220;43.192;23.284;2024-01-06T04:24:18;96418.13;;;12.72;55.31
10348;BME280;5220;43.192;23.284;2024-01-06T04:26:45;96420.59;;;12.83;54.87
10348;BME280;5220;43.192;23.284;2024-01-06T04:29:11;96427.19;;;12.97;55.28
10348;BME280;5220;43.192;23.284;2024-01-06T04:31:40;96425.50;;;13.05;54.66
10348;BME280;5220;43.192;23.284;2024-01-06T04:34:07;96412.63;;;13.13;55.09
10348;BME280;5220;43.192;23.284;2024-01-06T04:36:33;96427.75;;;12.81;55.42
10348;BME280;5220;43.192;23.284;2024-01-06T04:39:01;96430.50;;;12.70;55.55
10348;BME280;5220;43.192;23.284;2024-01-06T04:41:28;96442.72;;;12.88;53.60
10348;BME280;5220;43.192;23.284;2024-01-06T04:43:55;96432.94;;;13.00;54.73
10348;BME280;5220;43.192;23.284;2024-01-06T04:46:22;96428.41;;;13.12;54.36
10348;BME280;5220;43.192;23.284;2024-01-06T04:48:49;96432.78;;;13.21;54.95
10348;BME280;5220;43.192;23.284;2024-01-06T04:51:15;96428.56;;;13.20;53.53
10348;BME280;5220;43.192;23.284;2024-01-06T04:53:42;96425.66;;;13.32;53.91
10348;BME280;5220;43.192;23.284;2024-01-06T04:56:10;96422.88;;;13.34;53.54
10348;BME280;5220;43.192;23.284;2024-01-06T04:58:37;96427.56;;;13.30;54.13
10348;BME280;5220;43.192;23.284;2024-01-06T05:01:04;96430.31;;;13.29;54.37
10348;BME280;5220;43.192;23.284;2024-01-06T05:03:31;96427.28;;;13.24;54.48
10348;BME280;5220;43.192;23.284;2024-01-06T05:05:58;96436.59;;;13.36;54.94
10348;BME280;5220;43.192;23.284;2024-01-06T05:08:24;96432.78;;;13.30;55.59
10348;BME280;5220;43.192;23.284;2024-01-06T05:10:52;96442.91;;;13.53;54.98
10348;BME280;5220;43.192;23.284;2024-01-06T05:13:20;96432.59;;;13.51;54.84
10348;BME280;5220;43.192;23.284;2024-01-06T05:15:47;96417.06;;;13.50;54.89
10348;BME280;5220;43.192;23.284;2024-01-06T05:18:14;96429.84;;;13.53;54.67
10348;BME280;5220;43.192;23.284;2024-01-06T05:20:40;96418.16;;;13.47;54.46
10348;BME280;5220;43.192;23.284;2024-01-06T05:23:07;96417.91;;;13.40;54.72
10348;BME280;5220;43.192;23.284;2024-01-06T05:25:34;96449.81;;;13.44;55.38
10348;BME280;5220;43.192;23.284;2024-01-06T05:27:59;96426.69;;;13.49;55.96
10348;BME280;5220;43.192;23.284;2024-01-06T05:30:27;96418.44;;;13.44;56.05
10348;BME280;5220;43.192;23.284;2024-01-06T05:32:54;96414.63;;;13.38;56.84
10348;BME280;5220;43.192;23.284;2024-01-06T05:35:21;96419.28;;;13.44;56.79
10348;BME280;5220;43.192;23.284;2024-01-06T05:37:48;96415.00;;;13.43;56.63
10348;BME280;5220;43.192;23.284;2024-01-06T05:40:15;96417.25;;;13.38;56.71
10348;BME280;5220;43.192;23.284;2024-01-06T05:42:41;96408.69;;;13.36;57.33
10348;BME280;5220;43.192;23.284;2024-01-06T05:45:10;96427.78;;;13.46;57.32
10348;BME280;5220;43.192;23.284;2024-01-06T05:47:39;96442.38;;;13.39;58.15
10348;BME280;5220;43.192;23.284;2024-01-06T05:50:07;96436.16;;;13.50;57.75
10348;BME280;5220;43.192;23.284;2024-01-06T05:52:34;96431.50;;;13.54;56.71
10348;BME280;5220;43.192;23.284;2024-01-06T05:55:01;96429.41;;;13.57;56.62
10348;BME280;5220;43.192;23.284;2024-01-06T05:57:28;96437.66;;;13.53;57.69
10348;BME280;5220;43.192;23.284;2024-01-06T05:59:54;96440.94;;;13.55;57.04
10348;BME280;5220;43.192;23.284;2024-01-06T06:02:21;96432.69;;;13.59;57.50
10348;BME280;5220;43.192;23.284;2024-01-06T06:04:49;96415.75;;;13.73;57.76
10348;BME280;5220;43.192;23.284;2024-01-06T06:07:16;96424.53;;;13.72;57.47
10348;BME280;5220;43.192;23.284;2024-01-06T06:09:42;96405.69;;;13.68;58.44
10348;BME280;5220;43.192;23.284;2024-01-06T06:12:12;96401.38;;;13.77;58.88
10348;BME280;5220;43.192;23.284;2024-01-06T06:14:39;96390.59;;;13.89;58.84
10348;BME280;5220;43.192;23.284;2024-01-06T06:17:05;96375.34;;;13.85;59.17
10348;BME280;5220;43.192;23.284;2024-01-06T06:19:32;96381.31;;;13.77;60.54
10348;BME280;5220;43.192;23.284;2024-01-06T06:22:00;96376.44;;;13.82;59.94
10348;BME280;5220;43.192;23.284;2024-01-06T06:24:27;96369.31;;;13.84;61.03
10348;BME280;5220;43.192;23.284;2024-01-06T06:26:54;96373.16;;;13.80;60.98
10348;BME280;5220;43.192;23.284;2024-01-06T06:29:20;96366.69;;;13.84;61.43
10348;BME280;5220;43.192;23.284;2024-01-06T06:31:47;96361.16;;;13.87;62.07
10348;BME280;5220;43.192;23.284;2024-01-06T06:34:14;96370.56;;;13.80;61.49
10348;BME280;5220;43.192;23.284;2024-01-06T06:36:40;96367.97;;;13.71;63.36
10348;BME280;5220;43.192;23.284;2024-01-06T06:39:08;96378.16;;;13.74;62.93
10348;BME280;5220;43.192;23.284;2024-01-06T06:41:35;96404.00;;;13.77;63.21
10348;BME280;5220;43.192;23.284;2024-01-06T06:44:02;96388.19;;;13.78;62.78
10348;BME280;5220;43.192;23.284;2024-01-06T06:46:29;96395.25;;;13.68;64.25
10348;BME280;5220;43.192;23.284;2024-01-06T06:48:57;96383.63;;;13.80;64.85
10348;BME280;5220;43.192;23.284;2024-01-06T06:51:23;96395.50;;;13.75;64.92
10348;BME280;5220;43.192;23.284;2024-01-06T06:53:52;96394.00;;;13.72;64.60
10348;BME280;5220;43.192;23.284;2024-01-06T06:56:20;96418.44;;;13.81;64.33
10348;BME280;5220;43.192;23.284;2024-01-06T06:58:47;96404.84;;;13.77;64.35
10348;BME280;5220;43.192;23.284;2024-01-06T07:01:14;96417.78;;;13.79;63.70
10348;BME280;5220;43.192;23.284;2024-01-06T07:03:41;96416.63;;;13.91;62.39
10348;BME280;5220;43.192;23.284;2024-01-06T07:06:08;96421.44;;;13.86;63.53
10348;BME280;5220;43.192;23.284;2024-01-06T07:08:34;96421.84;;;13.91;62.83
10348;BME280;5220;43.192;23.284;2024-01-06T07:11:04;96409.59;;;13.91;62.69
10348;BME280;5220;43.192;23.284;2024-01-06T07:13:32;96404.44;;;13.72;65.29
10348;BME280;5220;43.192;23.284;2024-01-06T07:15:58;96425.47;;;13.80;64.25
10348;BME280;5220;43.192;23.284;2024-01-06T07:18:25;96413.88;;;13.83;64.75
10348;BME280;5220;43.192;23.284;2024-01-06T07:20:52;96427.06;;;13.91;62.79
10348;BME280;5220;43.192;23.284;2024-01-06T07:23:18;96407.66;;;13.93;62.69
10348;BME280;5220;43.192;23.284;2024-01-06T07:25:45;96411.34;;;14.00;62.32
10348;BME280;5220;43.192;23.284;2024-01-06T07:28:12;96400.09;;;13.90;62.53
10348;BME280;5220;43.192;23.284;2024-01-06T07:30:40;96410.44;;;14.10;60.88
10348;BME280;5220;43.192;23.284;2024-01-06T07:33:07;96402.84;;;14.16;60.36
10348;BME280;5220;43.192;23.284;2024-01-06T07:35:33;96392.97;;;14.10;60.77
10348;BME280;5220;43.192;23.284;2024-01-06T07:38:00;96388.16;;;14.06;60.67
10348;BME280;5220;43.192;23.284;2024-01-06T07:40:27;96391.09;;;14.20;60.12
10348;BME280;5220;43.192;23.284;2024-01-06T07:42:53;96390.34;;;14.10;60.90
10348;BME280;5220;43.192;23.284;2024-01-06T07:45:20;96401.47;;;14.12;60.42
10348;BME280;5220;43.192;23.284;2024-01-06T07:47:48;96404.09;;;14.12;59.14
10348;BME280;5220;43.192;23.284;2024-01-06T07:50:15;96398.28;;;14.18;58.21
10348;BME280;5220;43.192;23.284;2024-01-06T07:52:42;96394.63;;;14.29;57.80
10348;BME280;5220;43.192;23.284;2024-01-06T07:55:08;96390.63;;;14.34;57.23
10348;BME280;5220;43.192;23.284;2024-01-06T07:57:34;96381.25;;;14.32;56.72
10348;BME280;5220;43.192;23.284;2024-01-06T08:00:01;96382.03;;;14.42;56.29
10348;BME280;5220;43.192;23.284;2024-01-06T08:02:28;96382.13;;;14.50;56.23
10348;BME280;5220;43.192;23.284;2024-01-06T08:04:56;96394.72;;;14.54;55.33
10348;BME280;5220;43.192;23.284;2024-01-06T08:07:23;96380.50;;;14.57;55.04
10348;BME280;5220;43.192;23.284;2024-01-06T08:09:50;96379.56;;;14.58;54.78
10348;BME280;5220;43.192;23.284;2024-01-06T08:12:17;96381.66;;;14.54;55.54
10348;BME280;5220;43.192;23.284;2024-01-06T08:14:44;96397.00;;;14.49;55.74
10348;BME280;5220;43.192;23.284;2024-01-06T08:17:10;96375.09;;;14.50;55.78
10348;BME280;5220;43.192;23.284;2024-01-06T08:19:37;96380.81;;;14.54;55.55
10348;BME280;5220;43.192;23.284;2024-01-06T08:22:05;96386.19;;;14.70;54.79
10348;BME280;5220;43.192;23.284;2024-01-06T08:24:32;96384.63;;;14.77;54.98
10348;BME280;5220;43.192;23.284;2024-01-06T08:26:59;96373.72;;;14.82;54.90
10348;BME280;5220;43.192;23.284;2024-01-06T08:29:26;96387.59;;;15.00;55.04
10348;BME280;5220;43.192;23.284;2024-01-06T08:31:52;96387.44;;;15.01;54.98
10348;BME280;5220;43.192;23.284;2024-01-06T08:34:20;96393.50;;;15.02;54.49
10348;BME280;5220;43.192;23.284;2024-01-06T08:36:47;96398.47;;;15.13;54.36
10348;BME280;5220;43.192;23.284;2024-01-06T08:39:15;96379.06;;;15.24;53.88
10348;BME280;5220;43.192;23.284;2024-01-06T08:41:42;96405.22;;;15.41;53.08
10348;BME280;5220;43.192;23.284;2024-01-06T08:44:08;96392.72;;;15.53;52.42
10348;BME280;5220;43.192;23.284;2024-01-06T08:46:35;96389.50;;;15.67;52.15
10348;BME280;5220;43.192;23.284;2024-01-06T08:49:02;96384.25;;;15.67;51.62
10348;BME280;5220;43.192;23.284;2024-01-06T08:51:29;96378.63;;;15.88;51.15
10348;BME280;5220;43.192;23.284;2024-01-06T08:53:56;96379.78;;;15.93;51.12
10348;BME280;5220;43.192;23.284;2024-01-06T08:56:24;96386.38;;;16.05;50.98
10348;BME280;5220;43.192;23.284;2024-01-06T08:58:51;96375.56;;;16.17;50.83
10348;BME280;5220;43.192;23.284;2024-01-06T09:01:18;96374.59;;;16.26;50.95
10348;BME280;5220;43.192;23.284;2024-01-06T09:03:44;96368.38;;;16.35;50.52
10348;BME280;5220;43.192;23.284;2024-01-06T09:06:11;96353.59;;;16.26;50.27
10348;BME280;5220;43.192;23.284;2024-01-06T09:08:39;96368.22;;;16.36;50.24
10348;BME280;5220;43.192;23.284;2024-01-06T09:11:05;96350.00;;;16.35;51.04
10348;BME280;5220;43.192;23.284;2024-01-06T09:13:34;96356.25;;;16.42;50.25
10348;BME280;5220;43.192;23.284;2024-01-06T09:16:00;96358.09;;;16.49;50.32
10348;BME280;5220;43.192;23.284;2024-01-06T09:18:27;96350.22;;;16.49;49.15
10348;BME280;5220;43.192;23.284;2024-01-06T09:20:54;96341.81;;;16.38;49.58
10348;BME280;5220;43.192;23.284;2024-01-06T09:23:22;96333.59;;;16.41;49.10
10348;BME280;5220;43.192;23.284;2024-01-06T09:25:48;96342.47;;;16.48;48.92
10348;BME280;5220;43.192;23.284;2024-01-06T09:28:17;96332.81;;;16.48;49.03
10348;BME280;5220;43.192;23.284;2024-01-06T09:30:45;96333.13;;;16.45;48.13
10348;BME280;5220;43.192;23.284;2024-01-06T09:33:12;96333.63;;;16.49;48.99
10348;BME280;5220;43.192;23.284;2024-01-06T09:35:41;96327.53;;;16.48;49.00
10348;BME280;5220;43.192;23.284;2024-01-06T09:38:07;96325.63;;;16.58;48.55
10348;BME280;5220;43.192;23.284;2024-01-06T09:40:35;96323.16;;;16.65;48.68
10348;BME280;5220;43.192;23.284;2024-01-06T09:43:07;96322.84;;;16.68;48.55
10348;BME280;5220;43.192;23.284;2024-01-06T09:45:34;96321.50;;;16.72;48.23
10348;BME280;5220;43.192;23.284;2024-01-06T09:48:05;96314.59;;;16.79;49.44
10348;BME280;5220;43.192;23.284;2024-01-06T09:50:37;96322.16;;;16.90;48.23
10348;BME280;5220;43.192;23.284;2024-01-06T09:53:04;96307.69;;;16.94;47.89
10348;BME280;5220;43.192;23.284;2024-01-06T09:55:32;96319.19;;;17.01;46.95
10348;BME280;5220;43.192;23.284;2024-01-06T09:57:59;96319.50;;;17.14;47.41
10348;BME280;5220;43.192;23.284;2024-01-06T10:00:25;96313.56;;;17.20;47.23
10348;BME280;5220;43.192;23.284;2024-01-06T10:02:52;96301.53;;;17.26;47.21
10348;BME280;5220;43.192;23.284;2024-01-06T10:05:22;96288.06;;;17.37;46.21
10348;BME280;5220;43.192;23.284;2024-01-06T10:07:48;96287.47;;;17.50;47.60
10348;BME280;5220;43.192;23.284;2024-01-06T10:10:15;96294.00;;;17.70;46.87
10348;BME280;5220;43.192;23.284;2024-01-06T10:12:42;96296.38;;;17.57;46.75
10348;BME280;5220;43.192;23.284;2024-01-06T10:15:10;96274.66;;;17.47;47.31
10348;BME280;5220;43.192;23.284;2024-01-06T10:17:38;96284.22;;;17.56;47.02
10348;BME280;5220;43.192;23.284;2024-01-06T10:20:07;96284.31;;;17.70;48.00
10348;BME280;5220;43.192;23.284;2024-01-06T10:22:37;96283.00;;;17.66;56.51
10348;BME280;5220;43.192;23.284;2024-01-06T10:27:33;96278.16;;;17.78;46.88
10348;BME280;5220;43.192;23.284;2024-01-06T10:30:00;96286.03;;;17.86;46.82
10348;BME280;5220;43.192;23.284;2024-01-06T10:32:27;96274.06;;;17.84;46.76
10348;BME280;5220;43.192;23.284;2024-01-06T10:34:55;96273.50;;;17.57;47.21
10348;BME280;5220;43.192;23.284;2024-01-06T10:37:23;96267.16;;;17.36;47.91
10348;BME280;5220;43.192;23.284;2024-01-06T10:40:06;96267.59;;;17.47;46.97
10348;BME280;5220;43.192;23.284;2024-01-06T10:42:33;96265.56;;;17.27;48.00
10348;BME280;5220;43.192;23.284;2024-01-06T10:45:00;96257.50;;;17.28;47.73
10348;BME280;5220;43.192;23.284;2024-01-06T10:47:29;96256.06;;;17.09;47.13
10348;BME280;5220;43.192;23.284;2024-01-06T10:49:59;96253.03;;;16.82;48.46
10348;BME280;5220;43.192;23.284;2024-01-06T10:52:27;96239.22;;;16.88;48.93
10348;BME280;5220;43.192;23.284;2024-01-06T10:54:55;96238.97;;;16.58;49.15
10348;BME280;5220;43.192;23.284;2024-01-06T10:57:23;96251.75;;;16.70;48.68
10348;BME280;5220;43.192;23.284;2024-01-06T10:59:51;96232.06;;;16.65;49.48
10348;BME280;5220;43.192;23.284;2024-01-06T11:02:18;96227.28;;;16.45;49.48
10348;BME280;5220;43.192;23.284;2024-01-06T11:04:46;96233.34;;;16.70;62.44
10348;BME280;5220;43.192;23.284;2024-01-06T11:07:14;96232.16;;;16.96;57.52
10348;BME280;5220;43.192;23.284;2024-01-06T11:09:47;96228.66;;;17.04;52.35
10348;BME280;5220;43.192;23.284;2024-01-06T11:12:17;96217.53;;;17.02;51.75
10348;BME280;5220;43.192;23.284;2024-01-06T11:14:45;96225.06;;;17.05;53.21
10348;BME280;5220;43.192;23.284;2024-01-06T11:17:12;96221.00;;;16.86;51.23
10348;BME280;5220;43.192;23.284;2024-01-06T11:19:44;96228.28;;;16.68;51.58
10348;BME280;5220;43.192;23.284;2024-01-06T11:22:23;96227.94;;;16.63;51.98
10348;BME280;5220;43.192;23.284;2024-01-06T11:24:51;96222.53;;;16.48;52.51
10348;BME280;5220;43.192;23.284;2024-01-06T11:27:18;96220.56;;;16.42;51.79
10348;BME280;5220;43.192;23.284;2024-01-06T11:29:47;96231.06;;;16.26;52.58
10348;BME280;5220;43.192;23.284;2024-01-06T11:32:20;96227.31;;;16.12;52.64
10348;BME280;5220;43.192;23.284;2024-01-06T11:34:51;96229.78;;;16.06;53.23
10348;BME280;5220;43.192;23.284;2024-01-06T11:37:24;96226.63;;;16.10;53.68
10348;BME280;5220;43.192;23.284;2024-01-06T11:39:51;96239.75;;;16.10;52.79
10348;BME280;5220;43.192;23.284;2024-01-06T11:42:18;96224.66;;;15.88;54.17
10348;BME280;5220;43.192;23.284;2024-01-06T11:44:50;96223.50;;;15.83;53.57
10348;BME280;5220;43.192;23.284;2024-01-06T11:47:17;96225.94;;;15.76;54.24
10348;BME280;5220;43.192;23.284;2024-01-06T11:49:53;96225.31;;;15.82;55.16
10348;BME280;5220;43.192;23.284;2024-01-06T11:52:22;96224.16;;;15.85;54.85
10348;BME280;5220;43.192;23.284;2024-01-06T11:54:49;96228.59;;;15.84;55.42
10348;BME280;5220;43.192;23.284;2024-01-06T11:57:16;96217.78;;;15.87;55.55
10348;BME280;5220;43.192;23.284;2024-01-06T11:59:42;96216.78;;;15.88;54.81
10348;BME280;5220;43.192;23.284;2024-01-06T12:02:12;96205.50;;;15.88;55.13
10348;BME280;5220;43.192;23.284;2024-01-06T12:04:39;96196.47;;;15.90;55.56
10348;BME280;5220;43.192;23.284;2024-01-06T12:07:07;96207.75;;;15.83;56.61
10348;BME280;5220;43.192;23.284;2024-01-06T12:09:34;96208.75;;;15.82;56.90
10348;BME280;5220;43.192;23.284;2024-01-06T12:12:02;96215.81;;;15.89;56.23
10348;BME280;5220;43.192;23.284;2024-01-06T12:14:29;96214.31;;;15.79;57.03
10348;BME280;5220;43.192;23.284;2024-01-06T12:16:56;96220.38;;;15.79;57.26
10348;BME280;5220;43.192;23.284;2024-01-06T12:19:29;96224.78;;;15.71;56.85
10348;BME280;5220;43.192;23.284;2024-01-06T12:21:56;96210.06;;;15.86;56.48
10348;BME280;5220;43.192;23.284;2024-01-06T12:24:23;96193.19;;;15.96;56.91
10348;BME280;5220;43.192;23.284;2024-01-06T12:26:50;96208.09;;;15.80;57.54
10348;BME280;5220;43.192;23.284;2024-01-06T12:29:17;96212.72;;;16.02;58.34
10348;BME280;5220;43.192;23.284;2024-01-06T12:31:46;96200.25;;;15.96;57.56
10348;BME280;5220;43.192;23.284;2024-01-06T12:34:13;96199.25;;;16.05;57.43
10348;BME280;5220;43.192;23.284;2024-01-06T12:36:41;96194.81;;;16.30;57.53
10348;BME280;5220;43.192;23.284;2024-01-06T12:39:11;96201.22;;;16.43;58.07
10348;BME280;5220;43.192;23.284;2024-01-06T12:41:39;96195.63;;;16.38;56.03
10348;BME280;5220;43.192;23.284;2024-01-06T12:44:07;96196.13;;;16.50;57.48
10348;BME280;5220;43.192;23.284;2024-01-06T12:46:34;96193.16;;;16.45;56.85
10348;BME280;5220;43.192;23.284;2024-01-06T12:49:00;96192.00;;;16.47;56.36
10348;BME280;5220;43.192;23.284;2024-01-06T12:51:27;96184.31;;;16.62;55.15
10348;BME280;5220;43.192;23.284;2024-01-06T12:53:55;96181.50;;;16.63;54.86
10348;BME280;5220;43.192;23.284;2024-01-06T12:56:22;96172.31;;;16.67;55.72
10348;BME280;5220;43.192;23.284;2024-01-06T12:58:49;96170.94;;;16.80;55.28
10348;BME280;5220;43.192;23.284;2024-01-06T13:01:16;96172.91;;;16.86;55.26
10348;BME280;5220;43.192;23.284;2024-01-06T13:03:44;96168.97;;;16.82;54.93